sensor_id;sensor_type;location;lat;lon;timestamp;pressure;altitude;pressure_sealevel;temperature
72405;BMP280;60395;52.020;113.548;2022-12-20T00:02:01;92377.31;;;-14.90
72405;BMP280;60395;52.020;113.548;2022-12-20T00:05:05;92373.44;;;-14.84
72405;BMP280;60395;52.020;113.548;2022-12-20T00:08:09;92374.09;;;-14.83
72405;BMP280;60395;52.020;113.548;2022-12-20T00:11:13;92366.00;;;-14.74
72405;BMP280;60395;52.020;113.548;2022-12-20T00:14:16;92373.19;;;-14.70
72405;BMP280;60395;52.020;113.548;2022-12-20T00:17:20;92372.88;;;-14.74
72405;BMP280;60395;52.020;113.548;2022-12-20T00:20:25;92376.63;;;-14.83
72405;BMP280;60395;52.020;113.548;2022-12-20T00:23:28;92373.63;;;-14.89
72405;BMP280;60395;52.020;113.548;2022-12-20T00:26:33;92374.81;;;-14.90
72405;BMP280;60395;52.020;113.548;2022-12-20T00:29:36;92376.16;;;-14.89
72405;BMP280;60395;52.020;113.548;2022-12-20T00:32:39;92375.84;;;-14.93
72405;BMP280;60395;52.020;113.548;2022-12-20T00:35:42;92369.94;;;-14.88
72405;BMP280;60395;52.020;113.548;2022-12-20T00:38:47;92373.13;;;-14.88
72405;BMP280;60395;52.020;113.548;2022-12-20T00:41:51;92372.44;;;-14.88
72405;BMP280;60395;52.020;113.548;2022-12-20T00:44:54;92371.78;;;-14.89
72405;BMP280;60395;52.020;113.548;2022-12-20T00:47:57;92375.81;;;-14.86
72405;BMP280;60395;52.020;113.548;2022-12-20T00:51:11;92379.97;;;-14.81
72405;BMP280;60395;52.020;113.548;2022-12-20T00:54:14;92373.91;;;-14.78
72405;BMP280;60395;52.020;113.548;2022-12-20T00:57:17;92380.28;;;-14.77
72405;BMP280;60395;52.020;113.548;2022-12-20T01:00:20;92377.09;;;-14.77
72405;BMP280;60395;52.020;113.548;2022-12-20T01:03:24;92372.88;;;-14.74
72405;BMP280;60395;52.020;113.548;2022-12-20T01:06:28;92373.19;;;-14.70
72405;BMP280;60395;52.020;113.548;2022-12-20T01:09:32;92375.34;;;-14.67
72405;BMP280;60395;52.020;113.548;2022-12-20T01:12:35;92374.34;;;-14.64
72405;BMP280;60395;52.020;113.548;2022-12-20T01:15:38;92367.25;;;-14.58
72405;BMP280;60395;52.020;113.548;2022-12-20T01:18:41;92376.56;;;-14.51
72405;BMP280;60395;52.020;113.548;2022-12-20T01:21:45;92363.44;;;-14.41
72405;BMP280;60395;52.020;113.548;2022-12-20T01:24:48;92365.38;;;-14.32
72405;BMP280;60395;52.020;113.548;2022-12-20T01:27:52;92364.47;;;-14.20
72405;BMP280;60395;52.020;113.548;2022-12-20T01:30:55;92367.34;;;-14.06
72405;BMP280;60395;52.020;113.548;2022-12-20T01:33:59;92362.16;;;-13.91
72405;BMP280;60395;52.020;113.548;2022-12-20T01:37:02;92364.56;;;-13.75
72405;BMP280;60395;52.020;113.548;2022-12-20T01:40:06;92357.34;;;-13.62
72405;BMP280;60395;52.020;113.548;2022-12-20T01:43:13;92365.38;;;-13.56
72405;BMP280;60395;52.020;113.548;2022-12-20T01:46:19;92359.28;;;-13.53
72405;BMP280;60395;52.020;113.548;2022-12-20T01:49:33;92355.72;;;-13.50
72405;BMP280;60395;52.020;113.548;2022-12-20T01:52:40;92352.78;;;-13.46
72405;BMP280;60395;52.020;113.548;2022-12-20T01:55:45;92359.34;;;-13.43
72405;BMP280;60395;52.020;113.548;2022-12-20T01:58:51;92359.78;;;-13.37
72405;BMP280;60395;52.020;113.548;2022-12-20T02:01:59;92359.44;;;-13.24
72405;BMP280;60395;52.020;113.548;2022-12-20T02:05:05;92365.09;;;-13.16
72405;BMP280;60395;52.020;113.548;2022-12-20T02:08:09;92368.47;;;-13.03
72405;BMP280;60395;52.020;113.548;2022-12-20T02:21:13;92352.81;;;-12.65
72405;BMP280;60395;52.020;113.548;2022-12-20T02:31:30;92351.28;;;-12.32
72405;BMP280;60395;52.020;113.548;2022-12-20T02:34:38;92350.38;;;-12.27
72405;BMP280;60395;52.020;113.548;2022-12-20T02:37:53;92343.97;;;-12.18
72405;BMP280;60395;52.020;113.548;2022-12-20T02:41:02;92351.59;;;-12.09
72405;BMP280;60395;52.020;113.548;2022-12-20T02:44:12;92343.88;;;-12.01
72405;BMP280;60395;52.020;113.548;2022-12-20T02:47:41;92340.41;;;-11.96
72405;BMP280;60395;52.020;113.548;2022-12-20T02:50:51;92333.75;;;-11.91
72405;BMP280;60395;52.020;113.548;2022-12-20T02:53:58;92335.34;;;-11.86
72405;BMP280;60395;52.020;113.548;2022-12-20T03:00:14;92318.94;;;-11.76
72405;BMP280;60395;52.020;113.548;2022-12-20T03:03:19;92316.28;;;-11.68
72405;BMP280;60395;52.020;113.548;2022-12-20T03:06:26;92313.88;;;-11.56
72405;BMP280;60395;52.020;113.548;2022-12-20T03:09:34;92312.13;;;-11.44
72405;BMP280;60395;52.020;113.548;2022-12-20T03:12:37;92308.50;;;-11.41
72405;BMP280;60395;52.020;113.548;2022-12-20T03:15:41;92305.03;;;-11.36
72405;BMP280;60395;52.020;113.548;2022-12-20T03:18:44;92298.50;;;-11.29
72405;BMP280;60395;52.020;113.548;2022-12-20T03:21:47;92295.13;;;-11.22
72405;BMP280;60395;52.020;113.548;2022-12-20T03:24:51;92296.31;;;-11.23
72405;BMP280;60395;52.020;113.548;2022-12-20T03:27:54;92296.03;;;-11.18
72405;BMP280;60395;52.020;113.548;2022-12-20T03:30:59;92300.41;;;-11.09
72405;BMP280;60395;52.020;113.548;2022-12-20T03:34:05;92289.44;;;-11.01
72405;BMP280;60395;52.020;113.548;2022-12-20T03:37:09;92288.09;;;-11.02
72405;BMP280;60395;52.020;113.548;2022-12-20T03:40:13;92273.56;;;-11.02
72405;BMP280;60395;52.020;113.548;2022-12-20T03:43:18;92269.28;;;-10.99
72405;BMP280;60395;52.020;113.548;2022-12-20T03:46:21;92264.63;;;-11.03
72405;BMP280;60395;52.020;113.548;2022-12-20T03:49:26;92265.72;;;-11.06
72405;BMP280;60395;52.020;113.548;2022-12-20T03:52:29;92259.31;;;-11.07
72405;BMP280;60395;52.020;113.548;2022-12-20T03:55:33;92258.34;;;-11.02
72405;BMP280;60395;52.020;113.548;2022-12-20T03:58:36;92256.88;;;-10.95
72405;BMP280;60395;52.020;113.548;2022-12-20T04:01:39;92253.88;;;-10.92
72405;BMP280;60395;52.020;113.548;2022-12-20T04:04:43;92247.88;;;-10.87
72405;BMP280;60395;52.020;113.548;2022-12-20T04:07:50;92241.72;;;-10.84
72405;BMP280;60395;52.020;113.548;2022-12-20T04:10:54;92239.19;;;-10.84
72405;BMP280;60395;52.020;113.548;2022-12-20T04:14:18;92235.69;;;-10.79
72405;BMP280;60395;52.020;113.548;2022-12-20T04:17:22;92231.81;;;-10.80
72405;BMP280;60395;52.020;113.548;2022-12-20T04:20:26;92229.81;;;-10.81
72405;BMP280;60395;52.020;113.548;2022-12-20T04:23:42;92224.09;;;-10.82
72405;BMP280;60395;52.020;113.548;2022-12-20T04:26:46;92218.06;;;-10.77
72405;BMP280;60395;52.020;113.548;2022-12-20T04:29:52;92217.03;;;-10.62
72405;BMP280;60395;52.020;113.548;2022-12-20T04:32:56;92212.53;;;-10.52
72405;BMP280;60395;52.020;113.548;2022-12-20T04:36:00;92216.34;;;-10.41
72405;BMP280;60395;52.020;113.548;2022-12-20T04:39:06;92207.84;;;-10.34
72405;BMP280;60395;52.020;113.548;2022-12-20T04:42:21;92205.06;;;-10.17
72405;BMP280;60395;52.020;113.548;2022-12-20T04:45:26;92198.69;;;-10.06
72405;BMP280;60395;52.020;113.548;2022-12-20T04:48:30;92193.50;;;-9.96
72405;BMP280;60395;52.020;113.548;2022-12-20T04:51:53;92205.00;;;-9.84
72405;BMP280;60395;52.020;113.548;2022-12-20T04:54:56;92194.31;;;-9.71
72405;BMP280;60395;52.020;113.548;2022-12-20T04:58:04;92191.88;;;-9.57
72405;BMP280;60395;52.020;113.548;2022-12-20T05:01:12;92194.31;;;-9.36
72405;BMP280;60395;52.020;113.548;2022-12-20T05:04:21;92189.75;;;-9.14
72405;BMP280;60395;52.020;113.548;2022-12-20T05:07:25;92186.50;;;-8.91
72405;BMP280;60395;52.020;113.548;2022-12-20T05:10:30;92185.13;;;-8.69
72405;BMP280;60395;52.020;113.548;2022-12-20T05:13:36;92184.97;;;-8.59
72405;BMP280;60395;52.020;113.548;2022-12-20T05:16:41;92174.47;;;-8.65
72405;BMP280;60395;52.020;113.548;2022-12-20T05:19:44;92173.31;;;-8.87
72405;BMP280;60395;52.020;113.548;2022-12-20T05:22:49;92171.72;;;-9.06
72405;BMP280;60395;52.020;113.548;2022-12-20T05:26:11;92169.94;;;-9.04
72405;BMP280;60395;52.020;113.548;2022-12-20T05:29:22;92157.25;;;-9.15
72405;BMP280;60395;52.020;113.548;2022-12-20T05:32:25;92161.38;;;-9.34
72405;BMP280;60395;52.020;113.548;2022-12-20T05:35:29;92156.19;;;-9.47
72405;BMP280;60395;52.020;113.548;2022-12-20T05:38:40;92155.00;;;-9.46
72405;BMP280;60395;52.020;113.548;2022-12-20T05:41:48;92150.88;;;-9.40
72405;BMP280;60395;52.020;113.548;2022-12-20T05:44:53;92147.75;;;-9.27
72405;BMP280;60395;52.020;113.548;2022-12-20T05:47:57;92153.47;;;-9.03
72405;BMP280;60395;52.020;113.548;2022-12-20T05:51:00;92147.44;;;-8.84
72405;BMP280;60395;52.020;113.548;2022-12-20T05:54:05;92144.56;;;-8.78
72405;BMP280;60395;52.020;113.548;2022-12-20T05:57:29;92139.88;;;-8.82
72405;BMP280;60395;52.020;113.548;2022-12-20T06:00:33;92145.25;;;-8.89
72405;BMP280;60395;52.020;113.548;2022-12-20T06:03:37;92149.38;;;-8.96
72405;BMP280;60395;52.020;113.548;2022-12-20T06:06:46;92145.53;;;-9.09
72405;BMP280;60395;52.020;113.548;2022-12-20T06:09:52;92152.50;;;-9.21
72405;BMP280;60395;52.020;113.548;2022-12-20T06:13:01;92155.31;;;-9.40
72405;BMP280;60395;52.020;113.548;2022-12-20T06:16:04;92152.31;;;-9.48
72405;BMP280;60395;52.020;113.548;2022-12-20T06:19:09;92149.59;;;-9.64
72405;BMP280;60395;52.020;113.548;2022-12-20T06:22:21;92150.22;;;-9.87
72405;BMP280;60395;52.020;113.548;2022-12-20T06:25:30;92144.50;;;-9.99
72405;BMP280;60395;52.020;113.548;2022-12-20T06:28:34;92142.59;;;-9.99
72405;BMP280;60395;52.020;113.548;2022-12-20T06:31:37;92145.00;;;-10.12
72405;BMP280;60395;52.020;113.548;2022-12-20T06:34:41;92148.53;;;-10.17
72405;BMP280;60395;52.020;113.548;2022-12-20T06:37:45;92144.81;;;-10.16
72405;BMP280;60395;52.020;113.548;2022-12-20T06:40:48;92146.88;;;-10.13
72405;BMP280;60395;52.020;113.548;2022-12-20T06:43:52;92153.53;;;-10.08
72405;BMP280;60395;52.020;113.548;2022-12-20T06:46:55;92145.91;;;-9.96
72405;BMP280;60395;52.020;113.548;2022-12-20T06:49:58;92144.03;;;-9.84
72405;BMP280;60395;52.020;113.548;2022-12-20T06:53:01;92147.38;;;-9.81
72405;BMP280;60395;52.020;113.548;2022-12-20T06:56:05;92145.94;;;-9.84
72405;BMP280;60395;52.020;113.548;2022-12-20T06:59:08;92149.13;;;-9.84
72405;BMP280;60395;52.020;113.548;2022-12-20T07:02:12;92148.81;;;-9.90
72405;BMP280;60395;52.020;113.548;2022-12-20T07:05:15;92148.66;;;-10.04
72405;BMP280;60395;52.020;113.548;2022-12-20T07:08:19;92150.94;;;-10.19
72405;BMP280;60395;52.020;113.548;2022-12-20T07:11:22;92146.75;;;-10.38
72405;BMP280;60395;52.020;113.548;2022-12-20T07:14:27;92142.16;;;-10.51
72405;BMP280;60395;52.020;113.548;2022-12-20T07:17:30;92151.81;;;-10.59
72405;BMP280;60395;52.020;113.548;2022-12-20T07:20:33;92145.72;;;-10.78
72405;BMP280;60395;52.020;113.548;2022-12-20T07:23:36;92147.19;;;-10.96
72405;BMP280;60395;52.020;113.548;2022-12-20T07:26:40;92146.81;;;-11.02
72405;BMP280;60395;52.020;113.548;2022-12-20T07:29:43;92158.34;;;-11.11
72405;BMP280;60395;52.020;113.548;2022-12-20T07:32:46;92147.53;;;-11.11
72405;BMP280;60395;52.020;113.548;2022-12-20T07:35:50;92151.41;;;-10.89
72405;BMP280;60395;52.020;113.548;2022-12-20T07:38:57;92154.75;;;-10.75
72405;BMP280;60395;52.020;113.548;2022-12-20T07:42:00;92144.31;;;-10.69
72405;BMP280;60395;52.020;113.548;2022-12-20T07:45:16;92142.06;;;-10.75
72405;BMP280;60395;52.020;113.548;2022-12-20T07:48:19;92144.88;;;-10.92
72405;BMP280;60395;52.020;113.548;2022-12-20T07:51:32;92139.16;;;-11.14
72405;BMP280;60395;52.020;113.548;2022-12-20T07:54:41;92148.44;;;-11.28
72405;BMP280;60395;52.020;113.548;2022-12-20T07:57:49;92143.16;;;-11.42
72405;BMP280;60395;52.020;113.548;2022-12-20T08:00:53;92143.63;;;-11.55
72405;BMP280;60395;52.020;113.548;2022-12-20T08:04:03;92151.44;;;-11.41
72405;BMP280;60395;52.020;113.548;2022-12-20T08:07:07;92148.91;;;-11.20
72405;BMP280;60395;52.020;113.548;2022-12-20T08:10:12;92150.75;;;-11.11
72405;BMP280;60395;52.020;113.548;2022-12-20T08:13:16;92149.34;;;-11.23
72405;BMP280;60395;52.020;113.548;2022-12-20T08:16:20;92149.63;;;-11.50
72405;BMP280;60395;52.020;113.548;2022-12-20T08:19:23;92149.44;;;-11.74
72405;BMP280;60395;52.020;113.548;2022-12-20T08:22:33;92143.50;;;-11.88
72405;BMP280;60395;52.020;113.548;2022-12-20T08:25:37;92152.84;;;-12.00
72405;BMP280;60395;52.020;113.548;2022-12-20T08:28:43;92154.84;;;-12.08
72405;BMP280;60395;52.020;113.548;2022-12-20T08:31:46;92154.59;;;-12.12
72405;BMP280;60395;52.020;113.548;2022-12-20T08:34:52;92154.09;;;-12.20
72405;BMP280;60395;52.020;113.548;2022-12-20T08:37:55;92152.91;;;-12.29
72405;BMP280;60395;52.020;113.548;2022-12-20T08:44:09;92158.50;;;-12.40
72405;BMP280;60395;52.020;113.548;2022-12-20T08:47:13;92152.38;;;-12.47
72405;BMP280;60395;52.020;113.548;2022-12-20T08:50:16;92157.31;;;-12.58
72405;BMP280;60395;52.020;113.548;2022-12-20T08:53:21;92151.72;;;-12.66
72405;BMP280;60395;52.020;113.548;2022-12-20T08:56:24;92154.25;;;-12.76
72405;BMP280;60395;52.020;113.548;2022-12-20T08:59:27;92158.78;;;-12.84
72405;BMP280;60395;52.020;113.548;2022-12-20T09:02:31;92164.63;;;-12.91
72405;BMP280;60395;52.020;113.548;2022-12-20T09:05:34;92168.69;;;-13.15
72405;BMP280;60395;52.020;113.548;2022-12-20T09:08:38;92164.78;;;-13.35
72405;BMP280;60395;52.020;113.548;2022-12-20T09:11:41;92170.47;;;-13.45
72405;BMP280;60395;52.020;113.548;2022-12-20T09:14:44;92169.00;;;-13.48
72405;BMP280;60395;52.020;113.548;2022-12-20T09:17:48;92164.09;;;-13.46
72405;BMP280;60395;52.020;113.548;2022-12-20T09:20:51;92164.78;;;-13.45
72405;BMP280;60395;52.020;113.548;2022-12-20T09:23:55;92159.44;;;-13.39
72405;BMP280;60395;52.020;113.548;2022-12-20T09:26:59;92163.97;;;-13.48
72405;BMP280;60395;52.020;113.548;2022-12-20T09:30:02;92161.78;;;-13.61
72405;BMP280;60395;52.020;113.548;2022-12-20T09:33:05;92160.81;;;-13.65
72405;BMP280;60395;52.020;113.548;2022-12-20T09:36:13;92167.97;;;-13.71
72405;BMP280;60395;52.020;113.548;2022-12-20T09:39:17;92163.69;;;-13.79
72405;BMP280;60395;52.020;113.548;2022-12-20T09:42:21;92169.50;;;-13.86
72405;BMP280;60395;52.020;113.548;2022-12-20T09:45:28;92166.78;;;-13.97
72405;BMP280;60395;52.020;113.548;2022-12-20T09:48:37;92171.13;;;-14.07
72405;BMP280;60395;52.020;113.548;2022-12-20T10:01:46;92175.25;;;-14.02
72405;BMP280;60395;52.020;113.548;2022-12-20T10:04:50;92179.25;;;-13.99
72405;BMP280;60395;52.020;113.548;2022-12-20T10:08:03;92176.88;;;-13.97
72405;BMP280;60395;52.020;113.548;2022-12-20T10:14:50;92184.06;;;-13.94
72405;BMP280;60395;52.020;113.548;2022-12-20T10:21:26;92186.28;;;-13.81
72405;BMP280;60395;52.020;113.548;2022-12-20T10:24:35;92185.06;;;-13.80
72405;BMP280;60395;52.020;113.548;2022-12-20T10:27:43;92179.00;;;-13.77
72405;BMP280;60395;52.020;113.548;2022-12-20T10:30:46;92182.25;;;-13.84
72405;BMP280;60395;52.020;113.548;2022-12-20T10:33:50;92179.63;;;-14.03
72405;BMP280;60395;52.020;113.548;2022-12-20T10:37:13;92183.00;;;-14.18
72405;BMP280;60395;52.020;113.548;2022-12-20T10:40:33;92181.47;;;-14.30
72405;BMP280;60395;52.020;113.548;2022-12-20T10:44:01;92177.75;;;-14.64
72405;BMP280;60395;52.020;113.548;2022-12-20T10:50:33;92180.03;;;-14.93
72405;BMP280;60395;52.020;113.548;2022-12-20T10:53:58;92179.31;;;-14.86
72405;BMP280;60395;52.020;113.548;2022-12-20T10:57:28;92179.91;;;-14.78
72405;BMP280;60395;52.020;113.548;2022-12-20T11:00:33;92180.13;;;-14.66
72405;BMP280;60395;52.020;113.548;2022-12-20T11:04:01;92183.09;;;-14.60
72405;BMP280;60395;52.020;113.548;2022-12-20T11:07:23;92183.09;;;-14.60
72405;BMP280;60395;52.020;113.548;2022-12-20T11:10:28;92191.53;;;-14.65
72405;BMP280;60395;52.020;113.548;2022-12-20T11:13:32;92190.88;;;-14.65
72405;BMP280;60395;52.020;113.548;2022-12-20T11:16:37;92183.78;;;-14.59
72405;BMP280;60395;52.020;113.548;2022-12-20T11:26:39;92174.88;;;-14.60
72405;BMP280;60395;52.020;113.548;2022-12-20T11:30:05;92180.59;;;-14.60
72405;BMP280;60395;52.020;113.548;2022-12-20T11:36:51;92181.31;;;-14.50
72405;BMP280;60395;52.020;113.548;2022-12-20T11:40:30;92176.97;;;-14.49
72405;BMP280;60395;52.020;113.548;2022-12-20T11:54:45;92180.50;;;-14.52
72405;BMP280;60395;52.020;113.548;2022-12-20T12:01:24;92184.78;;;-14.45
72405;BMP280;60395;52.020;113.548;2022-12-20T12:04:37;92176.78;;;-14.34
72405;BMP280;60395;52.020;113.548;2022-12-20T12:07:46;92177.00;;;-14.22
72405;BMP280;60395;52.020;113.548;2022-12-20T12:11:05;92170.81;;;-14.12
72405;BMP280;60395;52.020;113.548;2022-12-20T12:18:12;92183.13;;;-13.98
72405;BMP280;60395;52.020;113.548;2022-12-20T12:21:37;92176.22;;;-13.98
72405;BMP280;60395;52.020;113.548;2022-12-20T12:24:47;92179.78;;;-14.01
72405;BMP280;60395;52.020;113.548;2022-12-20T12:27:53;92172.06;;;-14.03
72405;BMP280;60395;52.020;113.548;2022-12-20T12:31:02;92166.38;;;-14.03
72405;BMP280;60395;52.020;113.548;2022-12-20T12:50:39;92163.69;;;-14.32
72405;BMP280;60395;52.020;113.548;2022-12-20T12:53:49;92161.44;;;-14.28
72405;BMP280;60395;52.020;113.548;2022-12-20T12:57:01;92160.91;;;-14.27
72405;BMP280;60395;52.020;113.548;2022-12-20T13:04:23;92155.81;;;-14.36
72405;BMP280;60395;52.020;113.548;2022-12-20T13:13:36;92158.41;;;-14.61
72405;BMP280;60395;52.020;113.548;2022-12-20T13:16:39;92153.22;;;-14.63
72405;BMP280;60395;52.020;113.548;2022-12-20T13:20:17;92158.50;;;-14.69
72405;BMP280;60395;52.020;113.548;2022-12-20T13:23:20;92162.19;;;-14.87
72405;BMP280;60395;52.020;113.548;2022-12-20T13:26:49;92163.03;;;-15.10
72405;BMP280;60395;52.020;113.548;2022-12-20T13:33:39;92154.72;;;-15.45
72405;BMP280;60395;52.020;113.548;2022-12-20T13:36:43;92152.59;;;-15.48
72405;BMP280;60395;52.020;113.548;2022-12-20T13:39:47;92155.44;;;-15.52
72405;BMP280;60395;52.020;113.548;2022-12-20T13:42:52;92154.91;;;-15.50
72405;BMP280;60395;52.020;113.548;2022-12-20T13:46:17;92158.31;;;-15.55
72405;BMP280;60395;52.020;113.548;2022-12-20T13:49:28;92166.94;;;-15.66
72405;BMP280;60395;52.020;113.548;2022-12-20T13:52:38;92153.88;;;-15.72
72405;BMP280;60395;52.020;113.548;2022-12-20T13:55:44;92162.47;;;-15.75
72405;BMP280;60395;52.020;113.548;2022-12-20T13:58:48;92162.47;;;-15.83
72405;BMP280;60395;52.020;113.548;2022-12-20T14:01:54;92162.53;;;-15.90
72405;BMP280;60395;52.020;113.548;2022-12-20T14:05:02;92168.09;;;-15.92
72405;BMP280;60395;52.020;113.548;2022-12-20T14:08:13;92165.66;;;-15.82
72405;BMP280;60395;52.020;113.548;2022-12-20T14:11:25;92171.16;;;-15.68
72405;BMP280;60395;52.020;113.548;2022-12-20T14:14:28;92166.44;;;-15.64
72405;BMP280;60395;52.020;113.548;2022-12-20T14:17:32;92170.09;;;-15.65
72405;BMP280;60395;52.020;113.548;2022-12-20T14:20:40;92169.28;;;-15.35
72405;BMP280;60395;52.020;113.548;2022-12-20T14:23:46;92173.88;;;-14.99
72405;BMP280;60395;52.020;113.548;2022-12-20T14:26:51;92174.75;;;-15.04
72405;BMP280;60395;52.020;113.548;2022-12-20T14:29:55;92169.22;;;-15.28
72405;BMP280;60395;52.020;113.548;2022-12-20T14:32:59;92167.31;;;-15.45
72405;BMP280;60395;52.020;113.548;2022-12-20T14:39:30;92175.63;;;-15.34
72405;BMP280;60395;52.020;113.548;2022-12-20T14:42:37;92171.50;;;-15.22
72405;BMP280;60395;52.020;113.548;2022-12-20T14:45:40;92164.41;;;-15.16
72405;BMP280;60395;52.020;113.548;2022-12-20T14:48:44;92167.25;;;-15.12
72405;BMP280;60395;52.020;113.548;2022-12-20T14:51:48;92171.75;;;-15.11
72405;BMP280;60395;52.020;113.548;2022-12-20T14:58:28;92181.25;;;-15.01
72405;BMP280;60395;52.020;113.548;2022-12-20T15:01:31;92179.16;;;-15.13
72405;BMP280;60395;52.020;113.548;2022-12-20T15:04:44;92186.94;;;-15.18
72405;BMP280;60395;52.020;113.548;2022-12-20T15:07:47;92177.13;;;-15.31
72405;BMP280;60395;52.020;113.548;2022-12-20T15:14:22;92176.31;;;-15.66
72405;BMP280;60395;52.020;113.548;2022-12-20T15:17:28;92182.88;;;-15.71
72405;BMP280;60395;52.020;113.548;2022-12-20T15:20:31;92175.53;;;-15.69
72405;BMP280;60395;52.020;113.548;2022-12-20T15:23:34;92175.66;;;-15.67
72405;BMP280;60395;52.020;113.548;2022-12-20T15:26:37;92182.53;;;-15.67
72405;BMP280;60395;52.020;113.548;2022-12-20T15:29:41;92179.03;;;-15.72
72405;BMP280;60395;52.020;113.548;2022-12-20T15:32:44;92187.63;;;-15.75
72405;BMP280;60395;52.020;113.548;2022-12-20T15:35:57;92180.22;;;-15.73
72405;BMP280;60395;52.020;113.548;2022-12-20T15:39:00;92177.84;;;-15.71
72405;BMP280;60395;52.020;113.548;2022-12-20T15:42:19;92183.56;;;-15.70
72405;BMP280;60395;52.020;113.548;2022-12-20T15:45:22;92179.59;;;-15.81
72405;BMP280;60395;52.020;113.548;2022-12-20T15:48:26;92179.88;;;-16.10
72405;BMP280;60395;52.020;113.548;2022-12-20T15:51:34;92176.44;;;-16.37
72405;BMP280;60395;52.020;113.548;2022-12-20T15:54:38;92173.13;;;-16.55
72405;BMP280;60395;52.020;113.548;2022-12-20T15:57:41;92179.34;;;-16.56
72405;BMP280;60395;52.020;113.548;2022-12-20T16:00:45;92178.16;;;-16.55
72405;BMP280;60395;52.020;113.548;2022-12-20T16:03:48;92179.53;;;-16.69
72405;BMP280;60395;52.020;113.548;2022-12-20T16:06:52;92192.13;;;-16.92
72405;BMP280;60395;52.020;113.548;2022-12-20T16:09:55;92183.59;;;-16.96
72405;BMP280;60395;52.020;113.548;2022-12-20T16:12:58;92192.25;;;-16.75
72405;BMP280;60395;52.020;113.548;2022-12-20T16:16:01;92181.50;;;-16.52
72405;BMP280;60395;52.020;113.548;2022-12-20T16:19:04;92187.66;;;-16.38
72405;BMP280;60395;52.020;113.548;2022-12-20T16:22:19;92190.47;;;-16.26
72405;BMP280;60395;52.020;113.548;2022-12-20T16:25:35;92191.16;;;-16.18
72405;BMP280;60395;52.020;113.548;2022-12-20T16:28:38;92192.44;;;-16.10
72405;BMP280;60395;52.020;113.548;2022-12-20T16:31:41;92204.00;;;-16.07
72405;BMP280;60395;52.020;113.548;2022-12-20T16:34:46;92199.16;;;-16.12
72405;BMP280;60395;52.020;113.548;2022-12-20T16:37:50;92203.06;;;-16.19
72405;BMP280;60395;52.020;113.548;2022-12-20T16:40:53;92207.06;;;-16.23
72405;BMP280;60395;52.020;113.548;2022-12-20T16:43:59;92211.09;;;-16.28
72405;BMP280;60395;52.020;113.548;2022-12-20T16:47:03;92210.44;;;-16.36
72405;BMP280;60395;52.020;113.548;2022-12-20T16:50:06;92214.47;;;-16.41
72405;BMP280;60395;52.020;113.548;2022-12-20T16:53:12;92214.66;;;-16.39
72405;BMP280;60395;52.020;113.548;2022-12-20T16:56:17;92208.28;;;-16.40
72405;BMP280;60395;52.020;113.548;2022-12-20T16:59:21;92215.47;;;-16.51
72405;BMP280;60395;52.020;113.548;2022-12-20T17:02:30;92226.06;;;-16.60
72405;BMP280;60395;52.020;113.548;2022-12-20T17:05:35;92230.09;;;-16.65
72405;BMP280;60395;52.020;113.548;2022-12-20T17:08:39;92232.78;;;-16.71
72405;BMP280;60395;52.020;113.548;2022-12-20T17:11:59;92235.44;;;-16.61
72405;BMP280;60395;52.020;113.548;2022-12-20T17:15:02;92238.78;;;-16.51
72405;BMP280;60395;52.020;113.548;2022-12-20T17:18:07;92236.78;;;-16.60
72405;BMP280;60395;52.020;113.548;2022-12-20T17:21:37;92237.31;;;-17.07
72405;BMP280;60395;52.020;113.548;2022-12-20T17:24:58;92241.13;;;-17.14
72405;BMP280;60395;52.020;113.548;2022-12-20T17:28:01;92247.50;;;-17.13
72405;BMP280;60395;52.020;113.548;2022-12-20T17:34:20;92252.31;;;-17.30
72405;BMP280;60395;52.020;113.548;2022-12-20T17:37:23;92258.16;;;-17.27
72405;BMP280;60395;52.020;113.548;2022-12-20T17:40:27;92259.19;;;-17.23
72405;BMP280;60395;52.020;113.548;2022-12-20T17:43:30;92265.72;;;-17.05
72405;BMP280;60395;52.020;113.548;2022-12-20T17:46:34;92256.03;;;-17.00
72405;BMP280;60395;52.020;113.548;2022-12-20T17:49:37;92261.50;;;-17.32
72405;BMP280;60395;52.020;113.548;2022-12-20T17:52:40;92268.41;;;-17.69
72405;BMP280;60395;52.020;113.548;2022-12-20T17:55:43;92266.34;;;-17.78
72405;BMP280;60395;52.020;113.548;2022-12-20T17:58:47;92259.88;;;-17.74
72405;BMP280;60395;52.020;113.548;2022-12-20T18:01:50;92269.91;;;-17.66
72405;BMP280;60395;52.020;113.548;2022-12-20T18:04:53;92267.59;;;-17.64
72405;BMP280;60395;52.020;113.548;2022-12-20T18:07:56;92267.59;;;-17.56
72405;BMP280;60395;52.020;113.548;2022-12-20T18:10:59;92269.72;;;-17.76
72405;BMP280;60395;52.020;113.548;2022-12-20T18:14:03;92265.19;;;-18.13
72405;BMP280;60395;52.020;113.548;2022-12-20T18:17:06;92265.47;;;-18.24
72405;BMP280;60395;52.020;113.548;2022-12-20T18:20:11;92273.94;;;-18.27
72405;BMP280;60395;52.020;113.548;2022-12-20T18:23:14;92282.13;;;-18.27
72405;BMP280;60395;52.020;113.548;2022-12-20T18:26:18;92279.75;;;-18.33
72405;BMP280;60395;52.020;113.548;2022-12-20T18:29:22;92282.63;;;-18.49
72405;BMP280;60395;52.020;113.548;2022-12-20T18:32:25;92289.38;;;-18.65
72405;BMP280;60395;52.020;113.548;2022-12-20T18:35:28;92289.56;;;-18.84
72405;BMP280;60395;52.020;113.548;2022-12-20T18:38:32;92294.97;;;-18.93
72405;BMP280;60395;52.020;113.548;2022-12-20T18:41:35;92302.03;;;-19.05
72405;BMP280;60395;52.020;113.548;2022-12-20T18:44:39;92295.88;;;-19.04
72405;BMP280;60395;52.020;113.548;2022-12-20T18:47:42;92307.00;;;-18.92
72405;BMP280;60395;52.020;113.548;2022-12-20T18:50:45;92307.16;;;-18.76
72405;BMP280;60395;52.020;113.548;2022-12-20T18:53:50;92303.44;;;-18.62
72405;BMP280;60395;52.020;113.548;2022-12-20T18:56:53;92316.88;;;-18.52
72405;BMP280;60395;52.020;113.548;2022-12-20T18:59:56;92316.44;;;-18.43
72405;BMP280;60395;52.020;113.548;2022-12-20T19:02:59;92316.97;;;-18.37
72405;BMP280;60395;52.020;113.548;2022-12-20T19:06:04;92318.03;;;-18.53
72405;BMP280;60395;52.020;113.548;2022-12-20T19:09:09;92324.38;;;-18.73